createdAt,value
2022-10-08T00:01:34.968Z,7.33
2022-10-08T00:04:07.006Z,7.47
2022-10-08T00:06:38.931Z,8.13
2022-10-08T00:09:10.822Z,6.97
2022-10-08T00:11:43.209Z,8.53
2022-10-08T00:14:15.390Z,6.63
2022-10-08T00:16:47.504Z,7.57
2022-10-08T00:19:19.427Z,7.83
2022-10-08T00:21:56.896Z,7.70
2022-10-08T00:24:28.865Z,5.83
2022-10-08T00:27:00.844Z,8.50
2022-10-08T00:29:33.426Z,6.90
2022-10-08T00:32:05.383Z,4.80
2022-10-08T00:34:37.309Z,7.50
2022-10-08T00:37:09.243Z,6.70
2022-10-08T00:39:41.801Z,8.43
2022-10-08T00:42:14.141Z,8.03
2022-10-08T00:45:15.625Z,8.43
2022-10-08T00:47:49.662Z,8.57
2022-10-08T00:50:33.247Z,7.67
2022-10-08T00:53:08.714Z,8.73
2022-10-08T00:55:43.920Z,9.03
2022-10-08T00:58:23.186Z,9.43
2022-10-08T01:00:55.599Z,9.13
2022-10-08T01:03:27.563Z,7.07
2022-10-08T01:06:38.133Z,8.93
2022-10-08T01:09:19.414Z,6.73
2022-10-08T01:12:04.182Z,7.13
2022-10-08T01:14:49.204Z,9.87
2022-10-08T01:17:34.849Z,9.73
2022-10-08T01:20:29.411Z,7.53
2022-10-08T01:23:35.162Z,10.07
2022-10-08T01:26:37.393Z,10.77
2022-10-08T01:29:38.871Z,9.47
2022-10-08T01:32:25.994Z,6.20
2022-10-08T01:35:11.193Z,8.60
2022-10-08T01:37:45.304Z,9.47
2022-10-08T01:40:25.490Z,8.53
2022-10-08T01:43:01.567Z,8.23
2022-10-08T01:45:53.537Z,8.77
2022-10-08T01:48:35.719Z,8.37
2022-10-08T01:51:26.588Z,7.90
2022-10-08T01:54:03.343Z,7.23
2022-10-08T01:56:41.061Z,10.23
2022-10-08T01:59:26.057Z,8.17
2022-10-08T02:02:03.550Z,9.17
2022-10-08T02:04:37.085Z,5.00
2022-10-08T02:07:19.219Z,4.77
2022-10-08T02:10:09.527Z,9.67
2022-10-08T02:12:44.273Z,7.90
2022-10-08T02:15:22.658Z,6.63
2022-10-08T02:18:20.227Z,6.83
2022-10-08T02:21:09.329Z,5.53
2022-10-08T02:23:53.460Z,8.60
2022-10-08T02:26:35.485Z,4.73
2022-10-08T02:29:29.099Z,4.87
2022-10-08T02:32:22.134Z,6.83
2022-10-08T02:35:15.230Z,6.73
2022-10-08T02:38:20.976Z,7.20
2022-10-08T02:40:58.844Z,6.50
2022-10-08T02:43:35.035Z,5.37
2022-10-08T02:46:20.193Z,4.53
2022-10-08T02:49:24.182Z,6.57
2022-10-08T02:52:01.608Z,4.63
2022-10-08T02:54:41.144Z,3.87
2022-10-08T02:57:25.909Z,5.20
2022-10-08T02:59:59.103Z,6.93
2022-10-08T03:02:40.194Z,5.03
2022-10-08T03:05:19.758Z,5.37
2022-10-08T03:07:54.932Z,6.53
2022-10-08T03:10:30.569Z,5.83
2022-10-08T03:13:04.666Z,6.27
2022-10-08T03:15:38.707Z,3.93
2022-10-08T03:18:12.431Z,6.00
2022-10-08T03:20:50.726Z,4.93
2022-10-08T03:23:24.015Z,4.77
2022-10-08T03:25:56.051Z,4.80
2022-10-08T03:28:27.918Z,5.70
2022-10-08T03:31:06.956Z,4.40
2022-10-08T03:33:38.952Z,6.30
2022-10-08T03:36:10.879Z,4.63
2022-10-08T03:38:42.959Z,5.00
2022-10-08T03:41:16.323Z,5.20
2022-10-08T03:43:48.197Z,4.93
2022-10-08T03:46:20.179Z,4.30
2022-10-08T03:48:52.250Z,4.43
2022-10-08T03:51:24.279Z,6.60
2022-10-08T03:53:56.120Z,6.77
2022-10-08T03:56:28.095Z,6.20
2022-10-08T03:59:01.053Z,4.40
2022-10-08T04:01:33.095Z,4.80
2022-10-08T04:04:05.146Z,5.33
2022-10-08T04:06:37.092Z,5.17
2022-10-08T04:09:11.328Z,5.97
2022-10-08T04:11:43.236Z,6.50
2022-10-08T04:14:15.142Z,4.43
2022-10-08T04:16:48.138Z,5.17
2022-10-08T04:19:20.007Z,3.93
2022-10-08T04:21:51.883Z,6.93
2022-10-08T04:24:23.772Z,5.73
2022-10-08T04:26:55.867Z,5.20
2022-10-08T04:29:27.778Z,8.10
2022-10-08T04:31:59.652Z,6.60
2022-10-08T04:34:31.588Z,10.27
2022-10-08T04:37:03.450Z,10.67
2022-10-08T04:39:35.611Z,12.00
2022-10-08T04:42:07.449Z,13.17
2022-10-08T04:44:39.374Z,12.57
2022-10-08T04:47:11.302Z,17.40
2022-10-08T04:49:43.231Z,18.27
2022-10-08T04:52:17.290Z,17.47
2022-10-08T04:54:49.327Z,22.87
2022-10-08T04:57:21.187Z,22.70
2022-10-08T05:00:13.539Z,27.73
2022-10-08T05:02:45.197Z,27.80
2022-10-08T05:05:17.519Z,30.73
2022-10-08T05:07:49.609Z,31.00
2022-10-08T05:10:21.540Z,33.17
2022-10-08T05:12:54.906Z,32.57
2022-10-08T05:15:26.811Z,32.53
2022-10-08T05:17:58.691Z,30.33
2022-10-08T05:20:30.545Z,32.90
2022-10-08T05:23:02.547Z,35.07
2022-10-08T05:25:36.043Z,33.70
2022-10-08T05:28:07.973Z,36.40
2022-10-08T05:30:39.949Z,33.77
2022-10-08T05:33:11.867Z,33.50
2022-10-08T05:35:43.772Z,37.80
2022-10-08T05:38:15.634Z,38.23
2022-10-08T05:40:47.541Z,36.37
2022-10-08T05:43:19.433Z,36.63
2022-10-08T05:45:52.069Z,34.50
2022-10-08T05:48:23.994Z,40.57
2022-10-08T05:50:55.955Z,38.57
2022-10-08T05:53:27.877Z,38.00
2022-10-08T05:56:02.360Z,36.40
2022-10-08T05:58:36.866Z,42.60
2022-10-08T06:01:16.693Z,39.30
2022-10-08T06:03:55.154Z,37.13
2022-10-08T06:06:27.490Z,37.90
2022-10-08T06:09:02.048Z,37.37
2022-10-08T06:11:36.733Z,40.17
2022-10-08T06:14:12.520Z,37.30
2022-10-08T06:16:44.460Z,36.97
2022-10-08T06:19:16.422Z,36.63
2022-10-08T06:21:48.585Z,37.13
2022-10-08T06:24:21.581Z,37.47
2022-10-08T06:26:53.501Z,40.93
2022-10-08T06:29:25.637Z,36.67
2022-10-08T06:31:57.509Z,36.60
2022-10-08T06:34:29.377Z,35.77
2022-10-08T06:37:01.371Z,39.63
2022-10-08T06:39:33.300Z,36.27
2022-10-08T06:42:05.218Z,34.03
2022-10-08T06:44:37.113Z,35.47
2022-10-08T06:47:09.096Z,36.00
2022-10-08T06:49:41.072Z,34.63
2022-10-08T06:52:12.932Z,30.87
2022-10-08T06:54:44.859Z,34.87
2022-10-08T06:57:16.810Z,33.60
2022-10-08T06:59:48.712Z,31.87
2022-10-08T07:02:21.458Z,31.30
2022-10-08T07:04:53.425Z,27.43
2022-10-08T07:07:25.348Z,28.30
2022-10-08T07:09:57.243Z,27.53
2022-10-08T07:12:29.951Z,28.30
2022-10-08T07:15:02.105Z,24.83
2022-10-08T07:17:34.056Z,23.50
2022-10-08T07:20:07.073Z,23.57
2022-10-08T07:22:38.939Z,24.30
2022-10-08T07:25:10.770Z,21.37
2022-10-08T07:27:44.946Z,19.23
2022-10-08T07:30:17.169Z,19.83
2022-10-08T07:32:53.909Z,18.40
2022-10-08T07:35:26.086Z,18.30
2022-10-08T07:37:57.983Z,18.30
2022-10-08T07:40:30.035Z,16.47
2022-10-08T07:43:02.365Z,14.23
2022-10-08T07:45:34.249Z,13.83
2022-10-08T07:48:06.171Z,14.50
2022-10-08T07:50:38.260Z,13.20
2022-10-08T07:53:10.111Z,13.20
2022-10-08T07:55:42.013Z,15.70
2022-10-08T07:58:14.203Z,12.53
2022-10-08T08:00:46.150Z,10.87
2022-10-08T08:03:18.061Z,12.50
2022-10-08T08:05:50.119Z,12.47
2022-10-08T08:08:25.612Z,9.70
2022-10-08T08:11:00.352Z,10.53
2022-10-08T08:13:37.438Z,12.63
2022-10-08T08:16:16.507Z,11.33
2022-10-08T08:18:52.275Z,10.10
2022-10-08T08:21:42.306Z,8.60
2022-10-08T08:24:15.376Z,8.77
2022-10-08T08:26:47.323Z,8.87
2022-10-08T08:29:19.412Z,9.43
2022-10-08T08:31:51.696Z,8.80
2022-10-08T08:34:25.110Z,12.73
2022-10-08T08:36:59.364Z,10.40
2022-10-08T08:39:31.934Z,7.10
2022-10-08T08:42:29.033Z,5.87
2022-10-08T08:45:34.253Z,7.77
2022-10-08T08:48:16.573Z,6.43
2022-10-08T08:50:51.292Z,6.70
2022-10-08T08:53:23.575Z,7.53
2022-10-08T08:56:02.727Z,6.20
2022-10-08T08:58:46.621Z,7.97
2022-10-08T09:01:33.765Z,7.57
2022-10-08T09:04:21.530Z,6.57
2022-10-08T09:06:56.508Z,6.93
2022-10-08T09:09:36.052Z,5.43
2022-10-08T09:12:31.196Z,5.13
2022-10-08T09:15:05.515Z,5.00
2022-10-08T09:17:41.128Z,5.80
2022-10-08T09:20:18.885Z,6.50
2022-10-08T09:22:54.023Z,4.30
2022-10-08T09:25:33.078Z,4.67
2022-10-08T09:28:05.006Z,5.43
2022-10-08T09:30:45.091Z,3.63
2022-10-08T09:33:32.061Z,7.10
2022-10-08T09:36:04.134Z,4.30
2022-10-08T09:38:38.533Z,4.53
2022-10-08T09:41:30.348Z,4.27
2022-10-08T09:44:22.727Z,5.40
2022-10-08T09:47:06.915Z,4.97
2022-10-08T09:49:39.077Z,4.50
2022-10-08T09:52:22.899Z,5.93
2022-10-08T09:55:18.474Z,7.23
2022-10-08T09:57:57.251Z,9.30
2022-10-08T10:00:37.213Z,6.70
2022-10-08T10:03:19.316Z,9.20
2022-10-08T10:05:55.341Z,5.60
2022-10-08T10:09:11.534Z,4.03
2022-10-08T10:11:57.207Z,4.40
2022-10-08T10:14:55.195Z,5.83
2022-10-08T10:17:52.328Z,4.20
2022-10-08T10:20:33.349Z,2.63
2022-10-08T10:24:01.076Z,5.07
2022-10-08T10:26:42.022Z,4.47
2022-10-08T10:29:21.014Z,4.47
2022-10-08T10:32:09.089Z,3.90
2022-10-08T10:34:47.630Z,3.33
2022-10-08T10:37:52.812Z,4.87
2022-10-08T10:40:31.606Z,4.90
2022-10-08T10:43:16.812Z,5.23
2022-10-08T10:46:14.238Z,7.10
2022-10-08T10:48:46.400Z,4.67
2022-10-08T10:51:39.682Z,3.63
2022-10-08T10:54:26.819Z,3.70
2022-10-08T10:57:08.579Z,2.50
2022-10-08T11:00:06.021Z,3.30
2022-10-08T11:02:57.207Z,4.57
2022-10-08T11:05:36.620Z,6.60
2022-10-08T11:08:17.612Z,2.73
2022-10-08T11:11:14.701Z,4.77
2022-10-08T11:14:12.678Z,4.27
2022-10-08T11:16:59.704Z,4.37
2022-10-08T11:19:43.859Z,3.70
2022-10-08T11:22:43.321Z,4.27
2022-10-08T11:26:09.889Z,3.03
2022-10-08T11:29:00.894Z,2.17
2022-10-08T11:31:45.254Z,2.73
2022-10-08T11:34:32.142Z,2.00
2022-10-08T11:37:19.710Z,5.97
2022-10-08T11:40:31.840Z,4.10
2022-10-08T11:43:27.081Z,5.27
2022-10-08T11:46:31.773Z,5.40
2022-10-08T11:49:17.007Z,4.13
2022-10-08T11:51:53.967Z,6.67
2022-10-08T11:54:38.615Z,5.30
2022-10-08T11:57:20.274Z,1.70
2022-10-08T12:00:02.043Z,5.77
2022-10-08T12:02:46.297Z,4.50
2022-10-08T12:05:24.353Z,4.20
2022-10-08T12:07:59.891Z,7.73
2022-10-08T12:10:36.952Z,4.50
2022-10-08T12:13:16.742Z,4.07
2022-10-08T12:15:52.366Z,3.67
2022-10-08T12:18:26.432Z,4.27
2022-10-08T12:21:16.802Z,3.23
2022-10-08T12:23:48.776Z,4.27
2022-10-08T12:26:20.818Z,3.20
2022-10-08T12:28:52.829Z,3.67
2022-10-08T12:31:40.251Z,3.87
2022-10-08T12:34:19.717Z,4.87
2022-10-08T12:37:14.598Z,3.83
2022-10-08T12:39:50.514Z,3.03
2022-10-08T12:42:30.556Z,3.27
2022-10-08T12:45:24.498Z,3.53
2022-10-08T12:48:11.502Z,4.77
2022-10-08T12:51:19.872Z,4.87
2022-10-08T12:53:52.800Z,2.60
2022-10-08T12:56:28.994Z,3.63
2022-10-08T12:59:04.606Z,2.97
2022-10-08T13:01:36.786Z,4.33
2022-10-08T13:04:32.494Z,3.20
2022-10-08T13:07:26.155Z,3.47
2022-10-08T13:10:02.033Z,3.60
2022-10-08T13:12:33.949Z,3.87
2022-10-08T13:15:08.761Z,4.97
2022-10-08T13:17:40.707Z,3.23
2022-10-08T13:20:20.941Z,4.60
2022-10-08T13:22:53.161Z,3.67
2022-10-08T13:25:43.302Z,5.10
2022-10-08T13:28:41.795Z,4.27
2022-10-08T13:31:23.911Z,4.37
2022-10-08T13:33:55.916Z,3.70
2022-10-08T13:36:27.929Z,4.17
2022-10-08T13:38:59.833Z,5.30
2022-10-08T13:41:31.731Z,2.40
2022-10-08T13:44:06.425Z,4.07
2022-10-08T13:46:38.365Z,3.97
2022-10-08T13:49:25.875Z,2.80
2022-10-08T13:51:58.901Z,3.27
2022-10-08T13:54:33.811Z,3.07
2022-10-08T13:57:05.756Z,3.03
2022-10-08T13:59:38.160Z,2.30
2022-10-08T14:02:14.458Z,4.17
2022-10-08T14:04:47.294Z,6.63
2022-10-08T14:07:26.466Z,3.93
2022-10-08T14:10:01.505Z,2.27
2022-10-08T14:12:35.257Z,3.03
2022-10-08T14:15:10.275Z,5.50
2022-10-08T14:17:42.590Z,3.77
2022-10-08T14:20:14.789Z,3.63
2022-10-08T14:22:46.748Z,4.63
2022-10-08T14:25:23.780Z,1.83
2022-10-08T14:27:55.676Z,3.60
2022-10-08T14:30:28.320Z,3.20
2022-10-08T14:33:00.191Z,3.53
2022-10-08T14:35:32.388Z,4.03
2022-10-08T14:38:04.496Z,3.73
2022-10-08T14:40:36.546Z,4.33
2022-10-08T14:43:08.423Z,3.20
2022-10-08T14:45:40.328Z,3.27
2022-10-08T14:48:12.226Z,2.67
2022-10-08T14:50:44.077Z,4.43
2022-10-08T14:53:16.068Z,4.37
2022-10-08T14:56:10.898Z,2.33
2022-10-08T14:58:41.467Z,3.03
2022-10-08T15:01:13.356Z,6.60
2022-10-08T15:03:45.992Z,2.50
2022-10-08T15:06:18.085Z,3.07
2022-10-08T15:08:50.134Z,3.87
2022-10-08T15:11:22.212Z,5.97
2022-10-08T15:13:54.251Z,3.03
2022-10-08T15:16:26.450Z,4.63
2022-10-08T15:18:58.808Z,3.67
2022-10-08T15:21:30.756Z,2.83
2022-10-08T15:24:02.662Z,4.37
2022-10-08T15:26:34.902Z,3.90
2022-10-08T15:29:06.849Z,3.83
2022-10-08T15:31:38.888Z,3.43
2022-10-08T15:34:19.439Z,5.90
2022-10-08T15:36:55.188Z,4.23
2022-10-08T15:39:27.115Z,3.20
2022-10-08T15:41:59.066Z,3.33
2022-10-08T15:44:31.685Z,3.60
2022-10-08T15:47:07.084Z,3.23
2022-10-08T15:49:43.029Z,4.03
2022-10-08T15:52:20.060Z,3.57
2022-10-08T15:54:51.975Z,3.97
2022-10-08T15:57:23.929Z,2.23
2022-10-08T15:59:58.053Z,3.20
2022-10-08T16:02:29.973Z,3.60
2022-10-08T16:05:01.872Z,3.57
2022-10-08T16:07:36.239Z,2.90
2022-10-08T16:10:08.486Z,3.20
2022-10-08T16:12:40.377Z,3.63
2022-10-08T16:15:12.258Z,4.13
2022-10-08T16:17:44.149Z,2.77
2022-10-08T16:20:16.132Z,3.60
2022-10-08T16:22:48.170Z,3.63
2022-10-08T16:25:20.281Z,4.13
2022-10-08T16:27:52.290Z,2.87
2022-10-08T16:30:24.168Z,3.73
2022-10-08T16:32:56.105Z,5.37
2022-10-08T16:35:28.039Z,5.93
2022-10-08T16:37:59.944Z,5.30
2022-10-08T16:40:31.797Z,4.43
2022-10-08T16:43:03.698Z,6.03
2022-10-08T16:45:40.099Z,4.27
2022-10-08T16:48:12.108Z,4.40
2022-10-08T16:50:44.014Z,4.00
2022-10-08T16:53:15.890Z,5.97
2022-10-08T16:55:48.050Z,4.53
2022-10-08T16:58:19.928Z,4.00
2022-10-08T17:00:51.811Z,5.00
2022-10-08T17:03:23.752Z,4.30
2022-10-08T17:05:55.598Z,4.97
2022-10-08T17:08:27.680Z,4.60
2022-10-08T17:11:04.865Z,5.00
2022-10-08T17:13:53.463Z,4.83
2022-10-08T17:16:28.380Z,5.17
2022-10-08T17:19:01.749Z,4.67
2022-10-08T17:21:35.029Z,4.10
2022-10-08T17:24:07.935Z,6.03
2022-10-08T17:26:40.365Z,4.63
2022-10-08T17:29:12.918Z,5.13
2022-10-08T17:31:44.900Z,6.40
2022-10-08T17:34:16.786Z,6.53
2022-10-08T17:36:48.851Z,4.60
2022-10-08T17:39:21.211Z,5.73
2022-10-08T17:41:53.339Z,11.37
2022-10-08T17:44:25.461Z,9.60
2022-10-08T17:46:57.476Z,9.20
2022-10-08T17:49:29.449Z,4.97
2022-10-08T17:52:01.429Z,7.43
2022-10-08T17:54:33.575Z,9.70
2022-10-08T17:57:05.506Z,4.50
2022-10-08T17:59:37.405Z,6.47
2022-10-08T18:02:09.540Z,4.63
2022-10-08T18:04:41.446Z,5.67
2022-10-08T18:07:14.793Z,4.80
2022-10-08T18:09:46.731Z,8.10
2022-10-08T18:12:18.989Z,6.93
2022-10-08T18:14:50.918Z,6.67
2022-10-08T18:17:22.772Z,4.53
2022-10-08T18:19:54.694Z,8.60
2022-10-08T18:22:26.692Z,7.73
2022-10-08T18:24:58.647Z,6.27
2022-10-08T18:27:30.559Z,5.27
2022-10-08T18:30:02.503Z,5.27
2022-10-08T18:32:34.959Z,6.60
2022-10-08T18:35:07.320Z,7.77
2022-10-08T18:37:39.245Z,7.37
2022-10-08T18:40:11.130Z,6.03
2022-10-08T18:42:43.072Z,8.40
2022-10-08T18:45:15.169Z,9.70
2022-10-08T18:47:47.164Z,8.83
2022-10-08T18:50:19.071Z,7.93
2022-10-08T18:52:51.027Z,7.70
2022-10-08T18:55:22.865Z,7.10
2022-10-08T18:57:54.728Z,9.07
2022-10-08T19:00:26.624Z,10.37
2022-10-08T19:02:59.522Z,10.30
2022-10-08T19:05:31.535Z,9.77
2022-10-08T19:08:04.191Z,11.03
2022-10-08T19:10:36.157Z,7.83
2022-10-08T19:13:08.081Z,7.13
2022-10-08T19:15:40.272Z,8.70
2022-10-08T19:18:12.253Z,8.20
2022-10-08T19:20:44.109Z,8.93
2022-10-08T19:23:16.048Z,9.57
2022-10-08T19:25:53.330Z,7.93
2022-10-08T19:28:25.341Z,8.37
2022-10-08T19:30:57.388Z,7.20
2022-10-08T19:33:29.276Z,6.53
2022-10-08T19:36:01.628Z,8.27
2022-10-08T19:38:35.233Z,8.57
2022-10-08T19:41:11.923Z,9.70
2022-10-08T19:43:44.142Z,6.87
2022-10-08T19:46:16.654Z,6.53
2022-10-08T19:48:55.155Z,7.30
2022-10-08T19:51:30.329Z,7.13
2022-10-08T19:54:02.826Z,8.00
2022-10-08T19:56:35.984Z,8.37
2022-10-08T19:59:10.643Z,7.03
2022-10-08T20:01:44.849Z,8.10
2022-10-08T20:04:16.988Z,9.40
2022-10-08T20:06:49.718Z,7.23
2022-10-08T20:09:21.671Z,8.93
2022-10-08T20:11:55.486Z,7.97
2022-10-08T20:14:27.625Z,9.67
2022-10-08T20:16:59.534Z,9.67
2022-10-08T20:19:31.480Z,7.83
2022-10-08T20:22:03.381Z,8.50
2022-10-08T20:24:35.301Z,10.40
2022-10-08T20:27:07.211Z,9.77
2022-10-08T20:29:39.154Z,7.73
2022-10-08T20:32:12.031Z,10.33
2022-10-08T20:34:43.905Z,8.53
2022-10-08T20:37:15.890Z,9.70
2022-10-08T20:39:47.946Z,8.80
2022-10-08T20:42:20.027Z,11.13
2022-10-08T20:44:52.165Z,11.03
2022-10-08T20:47:24.112Z,12.00
2022-10-08T20:49:56.013Z,9.70
2022-10-08T20:52:27.849Z,10.17
2022-10-08T20:54:59.748Z,12.77
2022-10-08T20:57:31.608Z,9.63
2022-10-08T21:00:04.755Z,8.93
2022-10-08T21:02:36.730Z,7.87
2022-10-08T21:05:09.041Z,10.17
2022-10-08T21:07:40.914Z,10.30
2022-10-08T21:10:13.025Z,8.77
2022-10-08T21:12:45.157Z,8.90
2022-10-08T21:15:17.490Z,10.27
2022-10-08T21:17:49.422Z,11.17
2022-10-08T21:20:21.689Z,10.27
2022-10-08T21:22:53.635Z,9.47
2022-10-08T21:25:25.532Z,13.17
2022-10-08T21:27:57.437Z,10.17
2022-10-08T21:30:29.344Z,8.23
2022-10-08T21:33:01.185Z,8.97
2022-10-08T21:35:36.571Z,11.60
2022-10-08T21:38:08.605Z,11.40
2022-10-08T21:40:40.705Z,9.50
2022-10-08T21:43:12.717Z,9.60
2022-10-08T21:45:54.937Z,10.27
2022-10-08T21:48:29.504Z,8.23
2022-10-08T21:51:06.236Z,10.67
2022-10-08T21:53:44.530Z,12.87
2022-10-08T21:56:20.905Z,8.60
2022-10-08T21:59:00.749Z,10.33
2022-10-08T22:01:41.159Z,8.77
2022-10-08T22:04:20.205Z,8.67
2022-10-08T22:06:55.440Z,8.70
2022-10-08T22:09:31.794Z,8.83
2022-10-08T22:12:04.080Z,8.70
2022-10-08T22:14:36.091Z,6.40
2022-10-08T22:17:07.959Z,6.67
2022-10-08T22:19:39.845Z,10.33
2022-10-08T22:22:12.070Z,6.97
2022-10-08T22:24:44.727Z,8.57
2022-10-08T22:27:16.657Z,9.53
2022-10-08T22:29:48.542Z,7.70
2022-10-08T22:32:20.460Z,8.67
2022-10-08T22:34:52.299Z,8.60
2022-10-08T22:37:24.274Z,6.27
2022-10-08T22:39:56.198Z,6.03
2022-10-08T22:42:28.106Z,7.60
2022-10-08T22:45:00.035Z,8.13
2022-10-08T22:47:32.076Z,7.97
2022-10-08T22:50:04.466Z,7.60
2022-10-08T22:52:36.401Z,10.17
2022-10-08T22:55:08.673Z,7.50
2022-10-08T22:57:41.115Z,8.67
2022-10-08T23:00:14.262Z,8.93
2022-10-08T23:02:46.297Z,6.03
2022-10-08T23:05:18.400Z,8.33
2022-10-08T23:07:55.820Z,8.47
2022-10-08T23:10:27.915Z,8.13
2022-10-08T23:12:59.794Z,6.23
2022-10-08T23:15:31.721Z,6.60
2022-10-08T23:18:03.693Z,6.77
2022-10-08T23:20:36.323Z,7.03
2022-10-08T23:23:08.256Z,5.87
2022-10-08T23:25:40.135Z,8.23
2022-10-08T23:28:12.042Z,6.53
2022-10-08T23:30:43.930Z,5.17
2022-10-08T23:33:16.306Z,4.67
2022-10-08T23:35:56.049Z,6.30
2022-10-08T23:38:27.954Z,5.27
2022-10-08T23:41:01.765Z,7.60
2022-10-08T23:43:37.336Z,6.53
2022-10-08T23:46:12.102Z,6.50
2022-10-08T23:48:44.390Z,5.87
2022-10-08T23:51:18.656Z,8.53
2022-10-08T23:53:52.309Z,7.80
2022-10-08T23:56:24.866Z,6.00
2022-10-08T23:58:57.934Z,6.10
